createdAt,value
2023-04-26T00:00:24.429Z,4.08
2023-04-26T00:01:24.461Z,4.05
2023-04-26T00:02:24.576Z,4.04
2023-04-26T00:03:24.481Z,4.04
2023-04-26T00:04:24.533Z,4.05
2023-04-26T00:05:24.457Z,4.05
2023-04-26T00:06:24.355Z,4.08
2023-04-26T00:07:24.390Z,4.12
2023-04-26T00:08:27.314Z,4.12
2023-04-26T00:09:27.335Z,4.12
2023-04-26T00:10:24.301Z,4.12
2023-04-26T00:11:24.297Z,4.14
2023-04-26T00:12:24.288Z,4.14
2023-04-26T00:13:24.301Z,4.19
2023-04-26T00:14:24.248Z,4.22
2023-04-26T00:15:24.227Z,4.24
2023-04-26T00:16:24.266Z,4.24
2023-04-26T00:17:24.201Z,4.28
2023-04-26T00:18:24.192Z,4.28
2023-04-26T00:19:24.256Z,4.30
2023-04-26T00:20:24.188Z,4.28
2023-04-26T00:21:24.146Z,4.28
2023-04-26T00:22:24.134Z,4.28
2023-04-26T00:23:24.122Z,4.28
2023-04-26T00:24:24.111Z,4.22
2023-04-26T00:25:24.152Z,4.16
2023-04-26T00:26:24.095Z,4.13
2023-04-26T00:27:24.069Z,4.10
2023-04-26T00:28:27.058Z,4.06
2023-04-26T00:29:27.046Z,4.04
2023-04-26T00:30:24.033Z,4.02
2023-04-26T00:31:24.209Z,4.01
2023-04-26T00:32:24.152Z,3.98
2023-04-26T00:33:23.984Z,3.95
2023-04-26T00:34:23.969Z,3.92
2023-04-26T00:35:23.968Z,3.87
2023-04-26T00:36:24.003Z,3.86
2023-04-26T00:37:23.982Z,3.83
2023-04-26T00:38:23.933Z,3.80
2023-04-26T00:39:23.938Z,3.84
2023-04-26T00:40:23.914Z,3.83
2023-04-26T00:41:23.872Z,3.83
2023-04-26T00:42:23.894Z,3.83
2023-04-26T00:43:23.909Z,3.83
2023-04-26T00:44:23.844Z,3.83
2023-04-26T00:45:23.825Z,3.86
2023-04-26T00:46:23.870Z,3.84
2023-04-26T00:47:23.892Z,3.88
2023-04-26T00:48:26.848Z,3.88
2023-04-26T00:49:26.800Z,3.92
2023-04-26T00:50:23.767Z,3.92
2023-04-26T00:51:23.749Z,3.94
2023-04-26T00:52:23.751Z,3.95
2023-04-26T00:53:23.743Z,3.94
2023-04-26T00:54:23.734Z,3.94
2023-04-26T00:55:23.725Z,3.96
2023-04-26T00:56:23.710Z,3.96
2023-04-26T00:57:23.673Z,3.96
2023-04-26T00:58:23.709Z,3.95
2023-04-26T00:59:23.661Z,3.92
2023-04-26T01:00:23.639Z,3.88
2023-04-26T01:01:23.684Z,3.88
2023-04-26T01:02:23.648Z,3.86
2023-04-26T01:03:23.793Z,3.86
2023-04-26T01:04:23.791Z,3.83
2023-04-26T01:05:23.558Z,3.78
2023-04-26T01:06:23.553Z,3.76
2023-04-26T01:07:23.537Z,3.70
2023-04-26T01:08:26.523Z,3.63
2023-04-26T01:09:26.537Z,3.63
2023-04-26T01:10:23.487Z,3.59
2023-04-26T01:11:23.506Z,3.58
2023-04-26T01:12:23.483Z,3.56
2023-04-26T01:13:23.443Z,3.56
2023-04-26T01:14:23.464Z,3.56
2023-04-26T01:15:23.419Z,3.59
2023-04-26T01:16:23.438Z,3.59
2023-04-26T01:17:23.403Z,3.62
2023-04-26T01:18:23.448Z,3.62
2023-04-26T01:19:23.423Z,3.65
2023-04-26T01:20:23.359Z,3.66
2023-04-26T01:21:23.338Z,3.66
2023-04-26T01:22:23.334Z,3.69
2023-04-26T01:23:23.335Z,3.70
2023-04-26T01:24:23.322Z,3.70
2023-04-26T01:25:23.285Z,3.70
2023-04-26T01:26:23.316Z,3.69
2023-04-26T01:27:23.282Z,3.69
2023-04-26T01:28:26.238Z,3.66
2023-04-26T01:29:26.282Z,3.65
2023-04-26T01:30:23.232Z,3.62
2023-04-26T01:31:23.244Z,3.60
2023-04-26T01:32:23.230Z,3.56
2023-04-26T01:33:23.204Z,3.51
2023-04-26T01:34:23.168Z,3.48
2023-04-26T01:35:23.164Z,3.47
2023-04-26T01:36:23.142Z,3.45
2023-04-26T01:37:23.116Z,3.44
2023-04-26T01:38:23.181Z,3.41
2023-04-26T01:39:23.091Z,3.41
2023-04-26T01:40:23.089Z,3.40
2023-04-26T01:41:23.056Z,3.36
2023-04-26T01:42:23.057Z,3.36
2023-04-26T01:43:23.045Z,3.34
2023-04-26T01:44:23.063Z,3.29
2023-04-26T01:45:23.007Z,3.29
2023-04-26T01:46:23.100Z,3.25
2023-04-26T01:47:23.005Z,3.25
2023-04-26T01:48:26.008Z,3.22
2023-04-26T01:49:25.959Z,3.21
2023-04-26T01:50:22.945Z,3.18
2023-04-26T01:51:22.935Z,3.14
2023-04-26T01:52:22.948Z,3.16
2023-04-26T01:53:22.964Z,3.16
2023-04-26T01:54:22.878Z,3.14
2023-04-26T01:55:22.867Z,3.16
2023-04-26T01:56:22.867Z,3.11
2023-04-26T01:57:22.873Z,3.11
2023-04-26T01:58:22.852Z,3.08
2023-04-26T01:59:22.835Z,3.05
2023-04-26T02:00:22.807Z,3.03
2023-04-26T02:01:22.789Z,3.03
2023-04-26T02:02:22.829Z,3.01
2023-04-26T02:03:23.023Z,3.00
2023-04-26T02:04:22.745Z,3.01
2023-04-26T02:05:22.816Z,3.00
2023-04-26T02:06:22.744Z,2.98
2023-04-26T02:07:22.703Z,3.00
2023-04-26T02:08:25.751Z,2.98
2023-04-26T02:09:25.673Z,3.00
2023-04-26T02:10:22.704Z,3.00
2023-04-26T02:11:22.654Z,2.98
2023-04-26T02:12:22.660Z,3.00
2023-04-26T02:13:22.653Z,3.03
2023-04-26T02:14:22.647Z,3.03
2023-04-26T02:15:22.653Z,3.04
2023-04-26T02:16:22.645Z,3.05
2023-04-26T02:17:22.569Z,3.08
2023-04-26T02:18:22.564Z,3.10
2023-04-26T02:19:22.548Z,3.11
2023-04-26T02:20:22.552Z,3.10
2023-04-26T02:21:22.550Z,3.10
2023-04-26T02:22:22.498Z,3.11
2023-04-26T02:23:22.508Z,3.11
2023-04-26T02:24:22.477Z,3.11
2023-04-26T02:25:22.464Z,3.10
2023-04-26T02:26:22.509Z,3.11
2023-04-26T02:27:22.464Z,3.11
2023-04-26T02:28:25.432Z,3.10
2023-04-26T02:29:42.306Z,3.11
2023-04-26T02:30:23.421Z,3.08
2023-04-26T02:31:23.250Z,3.11
2023-04-26T02:32:22.452Z,3.13
2023-04-26T02:33:22.405Z,3.14
2023-04-26T02:34:22.381Z,3.13
2023-04-26T02:35:22.321Z,3.11
2023-04-26T02:36:22.312Z,3.11
2023-04-26T02:37:22.296Z,3.08
2023-04-26T02:38:22.300Z,3.07
2023-04-26T02:39:22.338Z,3.05
2023-04-26T02:40:22.292Z,3.04
2023-04-26T02:41:22.243Z,3.04
2023-04-26T02:42:22.234Z,3.03
2023-04-26T02:43:22.222Z,3.01
2023-04-26T02:44:22.224Z,3.03
2023-04-26T02:45:22.237Z,3.03
2023-04-26T02:46:22.188Z,3.01
2023-04-26T02:47:22.202Z,3.01
2023-04-26T02:48:25.158Z,3.03
2023-04-26T02:49:25.144Z,3.04
2023-04-26T02:50:22.146Z,3.05
2023-04-26T02:51:22.133Z,3.05
2023-04-26T02:52:22.147Z,3.04
2023-04-26T02:53:22.091Z,3.05
2023-04-26T02:54:22.124Z,3.10
2023-04-26T02:55:22.060Z,3.10
2023-04-26T02:56:22.049Z,3.11
2023-04-26T02:57:22.030Z,3.13
2023-04-26T02:58:22.112Z,3.14
2023-04-26T02:59:22.022Z,3.14
2023-04-26T03:00:21.992Z,3.14
2023-04-26T03:01:22.046Z,3.16
2023-04-26T03:02:22.059Z,3.18
2023-04-26T03:03:22.127Z,3.21
2023-04-26T03:04:22.011Z,3.23
2023-04-26T03:05:21.916Z,3.25
2023-04-26T03:06:21.902Z,3.26
2023-04-26T03:07:21.886Z,3.29
2023-04-26T03:08:24.906Z,3.34
2023-04-26T03:09:24.890Z,3.34
2023-04-26T03:10:21.868Z,3.36
2023-04-26T03:11:21.838Z,3.41
2023-04-26T03:12:21.846Z,3.44
2023-04-26T03:13:21.812Z,3.47
2023-04-26T03:14:21.797Z,3.48
2023-04-26T03:15:21.842Z,3.51
2023-04-26T03:16:21.826Z,3.55
2023-04-26T03:17:21.768Z,3.59
2023-04-26T03:18:21.734Z,3.62
2023-04-26T03:19:21.747Z,3.66
2023-04-26T03:20:21.728Z,3.68
2023-04-26T03:21:21.756Z,3.73
2023-04-26T03:22:21.698Z,3.74
2023-04-26T03:23:21.676Z,3.78
2023-04-26T03:24:21.654Z,3.80
2023-04-26T03:25:21.644Z,3.83
2023-04-26T03:26:21.634Z,3.84
2023-04-26T03:27:21.684Z,3.86
2023-04-26T03:28:24.606Z,3.88
2023-04-26T03:29:24.628Z,3.88
2023-04-26T03:30:21.578Z,3.91
2023-04-26T03:31:21.653Z,3.92
2023-04-26T03:32:21.552Z,3.92
2023-04-26T03:33:21.560Z,3.95
2023-04-26T03:34:21.536Z,3.95
2023-04-26T03:35:21.559Z,3.96
2023-04-26T03:36:21.495Z,3.95
2023-04-26T03:37:21.480Z,3.98
2023-04-26T03:38:21.464Z,3.96
2023-04-26T03:39:21.475Z,3.99
2023-04-26T03:40:21.447Z,3.99
2023-04-26T03:41:21.465Z,3.99
2023-04-26T03:42:21.425Z,4.02
2023-04-26T03:43:21.474Z,4.01
2023-04-26T03:44:21.389Z,4.02
2023-04-26T03:45:21.372Z,4.01
2023-04-26T03:46:21.471Z,4.04
2023-04-26T03:47:21.357Z,4.01
2023-04-26T03:48:24.326Z,3.99
2023-04-26T03:49:24.324Z,3.99
2023-04-26T03:50:21.313Z,3.98
2023-04-26T03:51:21.288Z,4.01
2023-04-26T03:52:21.333Z,3.98
2023-04-26T03:53:21.272Z,3.99
2023-04-26T03:54:21.246Z,3.99
2023-04-26T03:55:21.259Z,3.99
2023-04-26T03:56:21.221Z,3.95
2023-04-26T03:57:21.208Z,3.94
2023-04-26T03:58:21.250Z,3.92
2023-04-26T03:59:21.180Z,3.88
2023-04-26T04:00:21.183Z,3.86
2023-04-26T04:01:21.152Z,3.84
2023-04-26T04:02:21.201Z,3.81
2023-04-26T04:03:21.402Z,3.81
2023-04-26T04:04:21.328Z,3.80
2023-04-26T04:05:21.221Z,3.77
2023-04-26T04:06:21.075Z,3.76
2023-04-26T04:07:21.089Z,3.74
2023-04-26T04:08:24.050Z,3.70
2023-04-26T04:09:24.109Z,3.68
2023-04-26T04:10:21.033Z,3.68
2023-04-26T04:11:21.016Z,3.65
2023-04-26T04:12:21.028Z,3.65
2023-04-26T04:13:20.985Z,3.63
2023-04-26T04:14:21.020Z,3.63
2023-04-26T04:15:21.046Z,3.63
2023-04-26T04:16:21.066Z,3.65
2023-04-26T04:17:20.948Z,3.66
2023-04-26T04:18:20.913Z,3.66
2023-04-26T04:19:20.955Z,3.68
2023-04-26T04:20:20.889Z,3.66
2023-04-26T04:21:20.929Z,3.69
2023-04-26T04:22:20.880Z,3.70
2023-04-26T04:23:20.851Z,3.73
2023-04-26T04:24:20.829Z,3.69
2023-04-26T04:25:20.816Z,3.69
2023-04-26T04:26:20.807Z,3.69
2023-04-26T04:27:20.840Z,3.69
2023-04-26T04:28:23.779Z,3.66
2023-04-26T04:29:23.794Z,3.69
2023-04-26T04:30:20.755Z,3.68
2023-04-26T04:31:20.772Z,3.68
2023-04-26T04:32:20.721Z,3.69
2023-04-26T04:33:20.740Z,3.69
2023-04-26T04:34:20.722Z,3.69
2023-04-26T04:35:20.682Z,3.69
2023-04-26T04:36:20.666Z,3.69
2023-04-26T04:37:20.655Z,3.73
2023-04-26T04:38:20.694Z,3.81
2023-04-26T04:39:20.645Z,3.84
2023-04-26T04:40:20.626Z,3.84
2023-04-26T04:41:20.606Z,3.84
2023-04-26T04:42:20.584Z,3.84
2023-04-26T04:43:20.568Z,3.86
2023-04-26T04:44:20.624Z,3.88
2023-04-26T04:45:20.552Z,3.88
2023-04-26T04:46:20.570Z,3.88
2023-04-26T04:47:20.529Z,3.88
2023-04-26T04:48:23.497Z,3.92
2023-04-26T04:49:23.517Z,3.92
2023-04-26T04:50:20.481Z,3.92
2023-04-26T04:51:20.462Z,3.95
2023-04-26T04:52:20.489Z,3.98
2023-04-26T04:53:20.487Z,4.01
2023-04-26T04:54:20.418Z,4.02
2023-04-26T04:55:20.417Z,4.08
2023-04-26T04:56:20.396Z,4.12
2023-04-26T04:57:20.426Z,4.14
2023-04-26T04:58:20.368Z,4.17
2023-04-26T04:59:20.414Z,4.20
2023-04-26T05:00:20.332Z,4.28
2023-04-26T05:01:20.340Z,4.31
2023-04-26T05:02:20.364Z,4.37
2023-04-26T05:03:20.468Z,4.40
2023-04-26T05:04:20.531Z,4.40
2023-04-26T05:05:20.318Z,4.42
2023-04-26T05:06:20.298Z,4.45
2023-04-26T05:07:20.249Z,4.50
2023-04-26T05:08:23.238Z,4.70
2023-04-26T05:09:23.231Z,5.35
2023-04-26T05:10:20.205Z,6.16
2023-04-26T05:11:20.263Z,6.77
2023-04-26T05:12:20.187Z,7.38
2023-04-26T05:13:20.170Z,7.90
2023-04-26T05:14:20.188Z,8.45
2023-04-26T05:15:20.140Z,8.70
2023-04-26T05:16:20.184Z,8.89
2023-04-26T05:17:20.161Z,9.13
2023-04-26T05:18:20.116Z,9.40
2023-04-26T05:19:20.097Z,9.59
2023-04-26T05:20:20.070Z,10.02
2023-04-26T05:21:20.057Z,10.38
2023-04-26T05:22:20.037Z,10.26
2023-04-26T05:23:20.078Z,10.56
2023-04-26T05:24:20.009Z,10.23
2023-04-26T05:25:22.255Z,10.20
2023-04-26T05:26:20.013Z,10.40
2023-04-26T05:27:19.992Z,10.34
2023-04-26T05:28:23.017Z,9.87
2023-04-26T05:29:22.958Z,9.82
2023-04-26T05:30:19.982Z,9.74
2023-04-26T05:31:19.945Z,9.99
2023-04-26T05:32:19.906Z,9.46
2023-04-26T05:33:19.929Z,8.88
2023-04-26T05:34:19.951Z,8.42
2023-04-26T05:35:19.867Z,8.03
2023-04-26T05:36:19.856Z,7.60
2023-04-26T05:37:19.837Z,7.28
2023-04-26T05:38:19.823Z,6.89
2023-04-26T05:39:19.833Z,6.56
2023-04-26T05:40:19.868Z,6.31
2023-04-26T05:41:19.782Z,6.14
2023-04-26T05:42:19.768Z,6.04
2023-04-26T05:43:19.782Z,5.99
2023-04-26T05:44:19.739Z,5.94
2023-04-26T05:45:19.741Z,5.97
2023-04-26T05:46:19.936Z,5.91
2023-04-26T05:47:19.707Z,5.87
2023-04-26T05:48:22.687Z,5.79
2023-04-26T05:49:22.683Z,5.72
2023-04-26T05:50:19.664Z,5.64
2023-04-26T05:51:19.657Z,5.59
2023-04-26T05:52:19.653Z,5.46
2023-04-26T05:53:19.619Z,5.41
2023-04-26T05:54:19.611Z,5.35
2023-04-26T05:55:19.752Z,5.30
2023-04-26T05:56:19.575Z,5.23
2023-04-26T05:57:21.769Z,5.20
2023-04-26T05:58:19.552Z,5.21
2023-04-26T05:59:19.547Z,5.43
2023-04-26T06:00:19.516Z,5.53
2023-04-26T06:01:19.516Z,5.72
2023-04-26T06:02:19.551Z,6.31
2023-04-26T06:03:19.783Z,6.72
2023-04-26T06:04:19.695Z,7.00
2023-04-26T06:05:19.503Z,7.31
2023-04-26T06:06:19.454Z,7.45
2023-04-26T06:07:19.422Z,7.63
2023-04-26T06:08:22.450Z,7.66
2023-04-26T06:09:22.401Z,7.57
2023-04-26T06:10:19.438Z,7.51
2023-04-26T06:11:19.382Z,7.48
2023-04-26T06:12:19.362Z,7.39
2023-04-26T06:13:19.357Z,7.39
2023-04-26T06:14:29.393Z,7.24
2023-04-26T06:15:20.354Z,7.20
2023-04-26T06:16:19.347Z,7.11
2023-04-26T06:17:19.380Z,7.07
2023-04-26T06:18:19.284Z,6.92
2023-04-26T06:19:19.255Z,6.93
2023-04-26T06:20:19.247Z,6.97
2023-04-26T06:21:19.306Z,6.97
2023-04-26T06:22:19.214Z,6.96
2023-04-26T06:23:20.343Z,7.03
2023-04-26T06:24:19.186Z,7.00
2023-04-26T06:25:19.181Z,7.03
2023-04-26T06:26:19.175Z,7.15
2023-04-26T06:27:19.209Z,7.20
2023-04-26T06:28:22.180Z,7.35
2023-04-26T06:29:22.123Z,7.50
2023-04-26T06:30:19.119Z,7.69
2023-04-26T06:31:19.137Z,7.72
2023-04-26T06:32:19.117Z,7.76
2023-04-26T06:33:19.120Z,7.79
2023-04-26T06:34:20.047Z,7.77
2023-04-26T06:35:19.057Z,7.66
2023-04-26T06:36:19.046Z,7.51
2023-04-26T06:37:19.029Z,7.32
2023-04-26T06:38:19.018Z,7.14
2023-04-26T06:39:19.052Z,7.06
2023-04-26T06:40:18.977Z,7.02
2023-04-26T06:41:18.993Z,6.95
2023-04-26T06:42:18.948Z,6.89
2023-04-26T06:43:19.004Z,6.88
2023-04-26T06:44:18.916Z,6.82
2023-04-26T06:45:19.014Z,6.85
2023-04-26T06:46:18.914Z,6.75
2023-04-26T06:47:18.892Z,6.82
2023-04-26T06:48:21.868Z,6.89
2023-04-26T06:49:21.866Z,7.00
2023-04-26T06:50:18.920Z,7.02
2023-04-26T06:51:18.841Z,6.89
2023-04-26T06:52:20.007Z,6.87
2023-04-26T06:53:19.833Z,6.78
2023-04-26T06:54:19.076Z,6.63
2023-04-26T06:55:18.766Z,6.63
2023-04-26T06:56:18.807Z,6.63
2023-04-26T06:57:18.755Z,6.63
2023-04-26T06:58:18.737Z,6.64
2023-04-26T06:59:18.719Z,6.74
2023-04-26T07:00:18.712Z,6.79
2023-04-26T07:01:18.723Z,6.72
2023-04-26T07:02:18.769Z,6.77
2023-04-26T07:03:18.859Z,6.82
2023-04-26T07:04:18.931Z,6.85
2023-04-26T07:05:18.748Z,6.93
2023-04-26T07:06:18.624Z,7.00
2023-04-26T07:07:18.642Z,7.13
2023-04-26T07:08:21.653Z,7.33
2023-04-26T07:09:21.593Z,7.51
2023-04-26T07:10:18.561Z,7.75
2023-04-26T07:11:18.558Z,7.97
2023-04-26T07:12:18.635Z,8.15
2023-04-26T07:13:18.539Z,8.33
2023-04-26T07:14:18.509Z,8.48
2023-04-26T07:15:18.544Z,8.58
2023-04-26T07:16:18.533Z,8.69
2023-04-26T07:17:18.476Z,8.74
2023-04-26T07:18:18.528Z,8.66
2023-04-26T07:19:18.451Z,8.52
2023-04-26T07:20:18.439Z,8.37
2023-04-26T07:21:18.428Z,8.27
2023-04-26T07:22:18.437Z,8.16
2023-04-26T07:23:18.385Z,8.03
2023-04-26T07:24:18.456Z,7.93
2023-04-26T07:25:18.384Z,7.93
2023-04-26T07:26:18.345Z,7.95
2023-04-26T07:27:18.335Z,8.03
2023-04-26T07:28:21.335Z,8.10
2023-04-26T07:29:21.354Z,8.03
2023-04-26T07:30:18.297Z,8.08
2023-04-26T07:31:18.301Z,8.13
2023-04-26T07:32:18.323Z,8.19
2023-04-26T07:33:18.352Z,8.27
2023-04-26T07:34:18.230Z,8.41
2023-04-26T07:35:18.297Z,8.58
2023-04-26T07:36:18.234Z,8.64
2023-04-26T07:37:18.186Z,8.79
2023-04-26T07:38:18.185Z,8.81
2023-04-26T07:39:18.168Z,8.81
2023-04-26T07:40:18.162Z,8.69
2023-04-26T07:41:18.196Z,8.60
2023-04-26T07:42:18.130Z,8.49
2023-04-26T07:43:18.114Z,8.41
2023-04-26T07:44:18.156Z,8.30
2023-04-26T07:45:18.102Z,8.26
2023-04-26T07:46:18.236Z,8.16
2023-04-26T07:47:18.119Z,8.13
2023-04-26T07:48:21.048Z,8.06
2023-04-26T07:49:21.044Z,7.97
2023-04-26T07:50:18.016Z,7.90
2023-04-26T07:51:18.020Z,7.76
2023-04-26T07:52:17.990Z,7.76
2023-04-26T07:53:18.029Z,7.77
2023-04-26T07:54:17.971Z,7.83
2023-04-26T07:55:18.042Z,7.85
2023-04-26T07:56:17.958Z,7.93
2023-04-26T07:57:18.061Z,8.00
2023-04-26T07:58:17.919Z,8.00
2023-04-26T07:59:17.915Z,8.01
2023-04-26T08:00:17.892Z,8.09
2023-04-26T08:01:17.855Z,8.12
2023-04-26T08:02:17.974Z,8.15
2023-04-26T08:03:18.172Z,8.23
2023-04-26T08:04:17.938Z,8.30
2023-04-26T08:05:17.991Z,8.44
2023-04-26T08:06:17.893Z,8.55
2023-04-26T08:07:17.773Z,8.60
2023-04-26T08:08:20.823Z,8.61
2023-04-26T08:09:20.766Z,8.69
2023-04-26T08:10:17.734Z,8.81
2023-04-26T08:11:17.719Z,8.89
2023-04-26T08:12:17.726Z,9.08
2023-04-26T08:13:17.690Z,9.04
2023-04-26T08:14:17.705Z,9.00
2023-04-26T08:15:17.673Z,9.02
2023-04-26T08:16:17.700Z,9.06
2023-04-26T08:17:17.638Z,9.23
2023-04-26T08:18:17.633Z,9.31
2023-04-26T08:19:17.597Z,9.41
2023-04-26T08:20:17.598Z,9.56
2023-04-26T08:21:17.620Z,9.72
2023-04-26T08:22:17.590Z,9.84
2023-04-26T08:23:17.555Z,9.92
2023-04-26T08:24:17.545Z,10.01
2023-04-26T08:25:17.583Z,10.04
2023-04-26T08:26:17.516Z,9.86
2023-04-26T08:27:17.503Z,9.50
2023-04-26T08:28:20.487Z,9.25
2023-04-26T08:29:20.486Z,9.06
2023-04-26T08:30:17.462Z,8.81
2023-04-26T08:31:17.822Z,8.58
2023-04-26T08:32:17.432Z,8.33
2023-04-26T08:33:17.414Z,8.01
2023-04-26T08:34:17.399Z,7.76
2023-04-26T08:35:17.392Z,7.43
2023-04-26T08:36:17.378Z,7.32
2023-04-26T08:37:17.389Z,7.11
2023-04-26T08:38:17.354Z,7.11
2023-04-26T08:39:17.324Z,7.18
2023-04-26T08:40:17.315Z,7.20
2023-04-26T08:41:17.322Z,7.18
2023-04-26T08:42:17.296Z,7.18
2023-04-26T08:43:17.325Z,7.31
2023-04-26T08:44:17.260Z,7.38
2023-04-26T08:45:17.253Z,7.42
2023-04-26T08:46:17.304Z,7.53
2023-04-26T08:47:17.215Z,7.63
2023-04-26T08:48:20.271Z,7.75
2023-04-26T08:49:20.196Z,7.93
2023-04-26T08:50:17.175Z,8.05
2023-04-26T08:51:17.159Z,8.15
2023-04-26T08:52:17.300Z,8.24
2023-04-26T08:53:17.145Z,8.30
2023-04-26T08:54:17.173Z,8.37
2023-04-26T08:55:17.119Z,8.46
2023-04-26T08:56:17.101Z,8.52
2023-04-26T08:57:17.085Z,8.49
2023-04-26T08:58:17.085Z,8.42
2023-04-26T08:59:17.064Z,8.38
2023-04-26T09:00:17.097Z,8.33
2023-04-26T09:01:17.065Z,8.19
2023-04-26T09:02:17.080Z,8.18
2023-04-26T09:03:17.079Z,8.26
2023-04-26T09:04:17.204Z,8.26
2023-04-26T09:05:17.122Z,8.34
2023-04-26T09:06:16.974Z,8.33
2023-04-26T09:07:16.943Z,8.42
2023-04-26T09:08:19.958Z,8.53
2023-04-26T09:09:19.931Z,8.69
2023-04-26T09:10:16.925Z,8.84
2023-04-26T09:11:16.940Z,8.95
2023-04-26T09:12:16.878Z,9.11
2023-04-26T09:13:16.869Z,9.25
2023-04-26T09:14:16.877Z,9.34
2023-04-26T09:15:16.856Z,9.47
2023-04-26T09:16:16.912Z,9.48
2023-04-26T09:17:16.834Z,9.44
2023-04-26T09:18:16.802Z,9.36
2023-04-26T09:19:16.799Z,9.39
2023-04-26T09:20:16.787Z,9.47
2023-04-26T09:21:16.844Z,9.59
2023-04-26T09:22:16.737Z,9.72
2023-04-26T09:23:16.764Z,9.91
2023-04-26T09:24:16.715Z,10.07
2023-04-26T09:25:16.705Z,9.91
2023-04-26T09:26:16.690Z,10.12
2023-04-26T09:27:16.723Z,10.31
2023-04-26T09:28:19.679Z,10.49
2023-04-26T09:29:19.663Z,10.67
2023-04-26T09:30:16.642Z,10.84
2023-04-26T09:31:16.639Z,10.86
2023-04-26T09:32:16.676Z,10.72
2023-04-26T09:33:16.679Z,10.41
2023-04-26T09:34:16.579Z,10.35
2023-04-26T09:35:16.574Z,10.40
2023-04-26T09:36:16.559Z,10.44
2023-04-26T09:37:16.569Z,10.60
2023-04-26T09:38:16.626Z,10.63
2023-04-26T09:39:16.518Z,10.57
2023-04-26T09:40:16.503Z,10.41
2023-04-26T09:41:16.505Z,10.48
2023-04-26T09:42:16.476Z,10.53
2023-04-26T09:43:16.477Z,10.61
2023-04-26T09:44:16.490Z,10.51
2023-04-26T09:45:16.418Z,10.60
2023-04-26T09:46:16.432Z,10.60
2023-04-26T09:47:16.405Z,10.49
2023-04-26T09:48:19.382Z,10.25
2023-04-26T09:49:19.405Z,10.35
2023-04-26T09:50:16.379Z,10.46
2023-04-26T09:51:16.337Z,10.56
2023-04-26T09:52:16.339Z,10.60
2023-04-26T09:53:16.315Z,10.72
2023-04-26T09:54:16.291Z,10.67
2023-04-26T09:55:25.402Z,10.86
2023-04-26T09:56:17.271Z,11.02
2023-04-26T09:57:16.259Z,11.12
2023-04-26T09:58:16.264Z,11.15
2023-04-26T09:59:16.250Z,11.23
2023-04-26T10:00:16.223Z,11.23
2023-04-26T10:01:16.401Z,11.43
2023-04-26T10:02:16.266Z,11.66
2023-04-26T10:03:16.259Z,11.83
2023-04-26T10:04:16.241Z,11.68
2023-04-26T10:05:16.136Z,11.57
2023-04-26T10:06:16.146Z,11.33
2023-04-26T10:07:16.134Z,11.18
2023-04-26T10:08:19.095Z,11.00
2023-04-26T10:09:19.087Z,10.92
2023-04-26T10:10:16.093Z,10.79
2023-04-26T10:11:16.108Z,10.60
2023-04-26T10:12:16.075Z,10.44
2023-04-26T10:13:16.045Z,10.44
2023-04-26T10:14:16.031Z,10.20
2023-04-26T10:15:16.004Z,10.05
2023-04-26T10:16:16.073Z,9.73
2023-04-26T10:17:16.018Z,9.34
2023-04-26T10:18:16.099Z,8.97
2023-04-26T10:19:15.985Z,8.97
2023-04-26T10:20:15.934Z,8.99
2023-04-26T10:21:15.915Z,8.95
2023-04-26T10:22:15.916Z,8.84
2023-04-26T10:23:17.218Z,8.76
2023-04-26T10:24:15.870Z,8.73
2023-04-26T10:25:15.891Z,8.84
2023-04-26T10:26:15.846Z,8.88
2023-04-26T10:27:15.828Z,8.89
2023-04-26T10:28:18.833Z,8.91
2023-04-26T10:29:18.842Z,8.89
2023-04-26T10:30:15.825Z,8.87
2023-04-26T10:31:15.793Z,8.88
2023-04-26T10:32:15.828Z,9.03
2023-04-26T10:33:15.793Z,9.11
2023-04-26T10:34:15.807Z,9.14
2023-04-26T10:35:15.770Z,9.29
2023-04-26T10:36:15.731Z,9.44
2023-04-26T10:37:15.701Z,9.65
2023-04-26T10:38:15.700Z,9.73
2023-04-26T10:39:15.670Z,9.87
2023-04-26T10:40:15.733Z,9.98
2023-04-26T10:41:15.640Z,10.12
2023-04-26T10:42:15.632Z,10.17
2023-04-26T10:43:15.623Z,10.07
2023-04-26T10:44:15.605Z,10.15
2023-04-26T10:45:15.584Z,10.20
2023-04-26T10:46:17.270Z,10.07
2023-04-26T10:47:15.550Z,9.86
2023-04-26T10:48:18.583Z,9.97
2023-04-26T10:49:18.523Z,10.10
2023-04-26T10:50:15.582Z,10.13
2023-04-26T10:51:15.537Z,10.16
2023-04-26T10:52:15.542Z,10.30
2023-04-26T10:53:15.468Z,10.44
2023-04-26T10:54:15.475Z,10.63
2023-04-26T10:55:15.450Z,10.72
2023-04-26T10:56:15.439Z,10.81
2023-04-26T10:57:15.410Z,10.90
2023-04-26T10:58:15.447Z,10.89
2023-04-26T11:00:15.413Z,10.90
2023-04-26T11:01:15.382Z,11.10
2023-04-26T11:02:15.385Z,11.18
2023-04-26T11:03:15.461Z,10.89
2023-04-26T11:04:15.386Z,10.51
2023-04-26T11:05:15.289Z,10.26
2023-04-26T11:06:15.293Z,10.31
2023-04-26T11:07:15.261Z,10.42
2023-04-26T11:08:18.310Z,10.48
2023-04-26T11:09:18.245Z,10.59
2023-04-26T11:10:15.221Z,10.68
2023-04-26T11:11:15.201Z,10.89
2023-04-26T11:12:15.233Z,11.05
2023-04-26T11:13:15.207Z,11.26
2023-04-26T11:14:16.297Z,11.32
2023-04-26T11:15:15.185Z,11.48
2023-04-26T11:16:15.227Z,11.68
2023-04-26T11:17:15.141Z,11.91
2023-04-26T11:18:15.117Z,12.09
2023-04-26T11:19:15.108Z,12.09
2023-04-26T11:20:15.114Z,12.03
2023-04-26T11:21:15.114Z,12.03
2023-04-26T11:22:15.075Z,12.18
2023-04-26T11:23:15.872Z,12.27
2023-04-26T11:24:15.076Z,11.99
2023-04-26T11:25:15.027Z,12.20
2023-04-26T11:26:15.038Z,11.97
2023-04-26T11:27:15.055Z,11.75
2023-04-26T11:28:17.972Z,11.62
2023-04-26T11:29:17.989Z,11.36
2023-04-26T11:30:14.957Z,11.41
2023-04-26T11:31:15.006Z,11.60
2023-04-26T11:32:14.977Z,11.62
2023-04-26T11:33:14.922Z,11.59
2023-04-26T11:34:14.906Z,11.57
2023-04-26T11:35:14.891Z,11.30
2023-04-26T11:36:14.889Z,11.27
2023-04-26T11:37:14.860Z,11.44
2023-04-26T11:38:14.848Z,11.51
2023-04-26T11:39:14.856Z,11.57
2023-04-26T11:40:14.825Z,11.66
2023-04-26T11:41:14.802Z,11.65
2023-04-26T11:42:14.790Z,11.59
2023-04-26T11:43:14.878Z,11.47
2023-04-26T11:44:14.757Z,11.14
2023-04-26T11:45:15.518Z,10.99
2023-04-26T11:46:14.812Z,10.72
2023-04-26T11:47:14.736Z,10.60
2023-04-26T11:48:17.848Z,10.57
2023-04-26T11:49:17.707Z,10.33
2023-04-26T11:50:14.674Z,10.22
2023-04-26T11:51:14.678Z,10.23
2023-04-26T11:52:14.646Z,10.23
2023-04-26T11:53:14.649Z,10.30
2023-04-26T11:54:14.653Z,10.35
2023-04-26T11:55:14.628Z,10.40
2023-04-26T11:56:14.595Z,10.60
2023-04-26T11:57:16.689Z,10.81
2023-04-26T11:58:14.570Z,10.96
2023-04-26T11:59:14.588Z,11.04
2023-04-26T12:00:14.547Z,10.97
2023-04-26T12:01:14.524Z,10.87
2023-04-26T12:02:14.746Z,10.71
2023-04-26T12:03:14.769Z,10.74
2023-04-26T12:04:14.644Z,10.71
2023-04-26T12:05:14.574Z,10.71
2023-04-26T12:06:14.456Z,10.61
2023-04-26T12:07:14.443Z,10.64
2023-04-26T12:08:17.424Z,10.64
2023-04-26T12:09:17.468Z,10.63
2023-04-26T12:10:14.395Z,10.60
2023-04-26T12:11:14.379Z,10.68
2023-04-26T12:12:14.362Z,10.69
2023-04-26T12:13:14.407Z,10.78
2023-04-26T12:14:14.343Z,10.75
2023-04-26T12:15:15.590Z,10.64
2023-04-26T12:16:25.672Z,10.42
2023-04-26T12:17:15.318Z,10.19
2023-04-26T12:18:14.604Z,10.12
2023-04-26T12:19:14.276Z,10.07
2023-04-26T12:20:14.262Z,9.97
2023-04-26T12:21:14.273Z,9.64
2023-04-26T12:22:14.287Z,9.59
2023-04-26T12:23:14.212Z,9.64
2023-04-26T12:24:14.190Z,9.62
2023-04-26T12:25:14.181Z,9.64
2023-04-26T12:26:14.193Z,9.72
2023-04-26T12:27:14.153Z,9.73
2023-04-26T12:28:17.169Z,9.83
2023-04-26T12:29:17.127Z,10.15
2023-04-26T12:30:14.112Z,10.46
2023-04-26T12:31:14.131Z,10.76
2023-04-26T12:32:14.148Z,11.14
2023-04-26T12:33:17.734Z,11.30
2023-04-26T12:34:14.053Z,11.32
2023-04-26T12:35:14.044Z,11.33
2023-04-26T12:36:14.029Z,11.30
2023-04-26T12:37:14.025Z,11.15
2023-04-26T12:38:14.411Z,10.90
2023-04-26T12:39:13.990Z,10.96
2023-04-26T12:40:13.974Z,10.97
2023-04-26T12:41:13.972Z,11.02
2023-04-26T12:42:13.959Z,10.78
2023-04-26T12:43:13.933Z,10.72
2023-04-26T12:44:13.938Z,10.67
2023-04-26T12:45:13.950Z,10.46
2023-04-26T12:46:13.939Z,10.46
2023-04-26T12:47:13.897Z,10.59
2023-04-26T12:48:17.402Z,10.79
2023-04-26T12:49:16.897Z,10.96
2023-04-26T12:50:14.029Z,11.00
2023-04-26T12:51:13.830Z,11.25
2023-04-26T12:52:13.799Z,11.37
2023-04-26T12:53:13.920Z,11.48
2023-04-26T12:54:13.821Z,11.60
2023-04-26T12:55:13.818Z,11.78
2023-04-26T12:56:13.746Z,11.97
2023-04-26T12:57:18.931Z,11.97
2023-04-26T12:58:13.969Z,11.68
2023-04-26T12:59:13.722Z,11.69
2023-04-26T13:00:13.720Z,11.69
2023-04-26T13:01:13.728Z,11.63
2023-04-26T13:02:13.755Z,11.78
2023-04-26T13:03:13.785Z,11.94
2023-04-26T13:04:13.790Z,11.91
2023-04-26T13:05:13.637Z,11.75
2023-04-26T13:06:13.674Z,11.83
2023-04-26T13:07:13.606Z,12.00
2023-04-26T13:08:16.789Z,12.06
2023-04-26T13:09:16.573Z,12.07
2023-04-26T13:10:13.569Z,12.21
2023-04-26T13:11:13.558Z,12.18
2023-04-26T13:12:13.577Z,12.04